This is the latest recevied weather packets stored in our database for station/object HB9DOZ-13. If no packets are shown the sender has not sent any weather packets the latest 10 day(s).
| Time | Temp. | Humidity | Pressure | Rain* | Wind** | Luminosity | Snow |
|---|---|---|---|---|---|---|---|
| 1777781118 | 11.67° C | 83% | - | 0 mm | - | - | - |
| 1777778117 | 12.78° C | 78% | - | 0 mm | - | - | - |
| 1777777517 | 12.78° C | 78% | - | 0 mm | - | - | - |
| 1777772115 | 13.33° C | 77% | - | 0 mm | - | - | - |
| 1777759516 | 16.11° C | 64% | - | 0 mm | - | - | - |
| 1777757716 | 16.67° C | 57% | - | 0 mm | - | - | - |
| 1777749916 | 17.78° C | 64% | - | 0 mm | - | - | - |
| 1777745116 | 19.44° C | 60% | - | 0 mm | - | - | - |
| 1777743317 | 21.11° C | 54% | - | 0 mm | - | - | - |
| 1777742116 | 21.67° C | 51% | - | 0 mm | - | - | - |
| 1777738535 | 23.89° C | 48% | - | 0 mm | - | - | - |
| 1777737336 | 23.89° C | 47% | - | 0 mm | - | - | - |
| 1777722317 | 22.78° C | 49% | - | 0 mm | - | - | - |
| 1777721116 | 22.78° C | 52% | - | 0 mm | - | - | - |
| 1777710337 | 17.22° C | 63% | - | 0 mm | - | - | - |
| 1777706717 | 15.56° C | 69% | - | 0 mm | - | - | - |
| 1777702517 | 11.67° C | 77% | - | 0 mm | - | - | - |
| 1777701318 | 11.11° C | 77% | - | 0 mm | - | - | - |
| 1777698916 | 11.11° C | 73% | - | 0 mm | - | - | - |
| 1777697717 | 10.56° C | 74% | - | 0 mm | - | - | - |
| 1777691116 | 11.11° C | 72% | - | 0 mm | - | - | - |
| 1777689317 | 11.67° C | 69% | - | 0 mm | - | - | - |
| 1777687516 | 11.67° C | 68% | - | 0 mm | - | - | - |
| 1777686916 | 11.67° C | 67% | - | 0 mm | - | - | - |
| 1777685118 | 12.22° C | 67% | - | 0 mm | - | - | - |
* Rain latest hour (hover to see other rain measurements)
** Current wind speed in m/s (hover to see current wind gust speed)